createdAt,value
2023-03-17T00:01:51.211Z,25.80
2023-03-17T00:04:20.943Z,26.20
2023-03-17T00:06:48.994Z,26.30
2023-03-17T00:09:19.777Z,26.20
2023-03-17T00:11:48.859Z,26.50
2023-03-17T00:14:16.848Z,26.40
2023-03-17T00:16:49.502Z,26.20
2023-03-17T00:19:22.596Z,26.40
2023-03-17T00:21:51.630Z,26.40
2023-03-17T00:24:19.605Z,26.30
2023-03-17T00:26:48.178Z,26.50
2023-03-17T00:29:16.190Z,26.70
2023-03-17T00:31:46.123Z,26.70
2023-03-17T00:34:19.803Z,26.20
2023-03-17T00:36:50.852Z,26.80
2023-03-17T00:39:19.534Z,26.90
2023-03-17T00:41:48.263Z,27.00
2023-03-17T00:44:16.290Z,27.00
2023-03-17T00:46:44.777Z,26.90
2023-03-17T00:51:46.245Z,27.00
2023-03-17T00:54:15.493Z,27.20
2023-03-17T00:56:44.652Z,27.20
2023-03-17T00:59:26.267Z,27.30
2023-03-17T01:01:55.265Z,27.30
2023-03-17T01:04:23.917Z,27.20
2023-03-17T01:06:53.903Z,27.50
2023-03-17T01:09:26.871Z,27.80
2023-03-17T01:11:55.544Z,28.00
2023-03-17T01:14:24.605Z,27.90
2023-03-17T01:16:55.014Z,27.90
2023-03-17T01:19:23.541Z,28.10
2023-03-17T01:21:52.893Z,28.10
2023-03-17T01:24:20.935Z,28.10
2023-03-17T01:26:48.870Z,27.90
2023-03-17T01:29:17.442Z,28.00
2023-03-17T01:31:46.159Z,28.30
2023-03-17T01:34:14.167Z,28.10
2023-03-17T01:36:43.094Z,28.10
2023-03-17T01:39:12.817Z,28.00
2023-03-17T01:41:41.109Z,28.40
2023-03-17T01:44:16.748Z,28.80
2023-03-17T01:46:45.396Z,28.90
2023-03-17T01:49:21.778Z,28.30
2023-03-17T01:52:04.952Z,28.30
2023-03-17T01:54:42.311Z,28.20
2023-03-17T01:57:14.647Z,28.40
2023-03-17T01:59:48.583Z,28.60
2023-03-17T02:02:21.329Z,28.60
2023-03-17T02:04:50.412Z,28.60
2023-03-17T02:07:20.466Z,28.80
2023-03-17T02:09:49.923Z,28.70
2023-03-17T02:12:18.429Z,28.90
2023-03-17T02:14:46.685Z,28.80
2023-03-17T02:17:14.816Z,28.80
2023-03-17T02:19:42.891Z,28.80
2023-03-17T02:22:12.370Z,29.20
2023-03-17T02:24:44.532Z,29.00
2023-03-17T02:27:17.530Z,29.10
2023-03-17T02:29:47.145Z,29.00
2023-03-17T02:32:18.136Z,28.80
2023-03-17T02:34:47.296Z,29.20
2023-03-17T02:37:18.561Z,29.10
2023-03-17T02:39:46.831Z,29.00
2023-03-17T02:42:15.120Z,29.20
2023-03-17T02:44:43.575Z,29.10
2023-03-17T02:47:11.887Z,29.30
2023-03-17T02:49:41.602Z,29.40
2023-03-17T02:52:09.916Z,29.30
2023-03-17T02:54:39.742Z,29.30
2023-03-17T02:57:08.286Z,29.20
2023-03-17T02:59:36.981Z,29.30
2023-03-17T03:02:04.987Z,29.60
2023-03-17T03:04:33.054Z,29.60
2023-03-17T03:07:01.234Z,29.70
2023-03-17T03:09:29.659Z,29.60
2023-03-17T03:11:59.104Z,29.80
2023-03-17T03:14:27.089Z,29.70
2023-03-17T03:16:55.094Z,29.50
2023-03-17T03:19:24.228Z,29.80
2023-03-17T03:21:52.212Z,29.60
2023-03-17T03:24:20.220Z,29.90
2023-03-17T03:26:48.365Z,29.70
2023-03-17T03:29:17.798Z,30.00
2023-03-17T03:31:47.984Z,29.70
2023-03-17T03:34:16.654Z,29.90
2023-03-17T03:36:44.657Z,30.00
2023-03-17T03:39:14.458Z,30.10
2023-03-17T03:41:42.701Z,30.20
2023-03-17T03:44:10.929Z,30.30
2023-03-17T03:46:40.414Z,30.10
2023-03-17T03:49:08.470Z,30.00
2023-03-17T03:51:36.501Z,30.00
2023-03-17T03:54:04.765Z,30.10
2023-03-17T03:56:32.737Z,30.80
2023-03-17T03:59:01.913Z,30.50
2023-03-17T04:01:29.885Z,30.20
2023-03-17T04:03:59.128Z,30.50
2023-03-17T04:06:27.152Z,30.80
2023-03-17T04:08:57.803Z,30.10
2023-03-17T04:11:26.398Z,30.70
2023-03-17T04:13:54.356Z,30.30
2023-03-17T04:16:22.428Z,30.50
2023-03-17T04:18:51.151Z,30.70
2023-03-17T04:21:21.492Z,30.30
2023-03-17T04:23:49.473Z,30.50
2023-03-17T04:26:18.704Z,30.60
2023-03-17T04:28:46.757Z,31.40
2023-03-17T04:31:14.849Z,30.80
2023-03-17T04:33:43.098Z,30.70
2023-03-17T04:36:20.491Z,31.00
2023-03-17T04:38:48.900Z,30.70
2023-03-17T04:41:16.994Z,30.50
2023-03-17T04:43:45.066Z,31.00
2023-03-17T04:46:13.096Z,31.00
2023-03-17T04:48:41.615Z,31.20
2023-03-17T04:51:11.683Z,31.40
2023-03-17T04:53:41.246Z,31.30
2023-03-17T04:56:09.341Z,30.80
2023-03-17T04:58:37.378Z,31.50
2023-03-17T05:01:05.626Z,31.50
2023-03-17T05:03:33.900Z,31.70
2023-03-17T05:06:03.085Z,31.80
2023-03-17T05:08:31.308Z,31.50
2023-03-17T05:11:01.112Z,31.40
2023-03-17T05:13:29.272Z,31.30
2023-03-17T05:15:59.386Z,31.30
2023-03-17T05:18:27.569Z,31.60
2023-03-17T05:20:56.141Z,31.50
2023-03-17T05:23:24.159Z,32.10
2023-03-17T05:25:52.563Z,31.50
2023-03-17T05:28:22.235Z,31.50
2023-03-17T05:30:50.668Z,31.40
2023-03-17T05:33:18.953Z,31.10
2023-03-17T05:35:47.576Z,31.50
2023-03-17T05:38:16.731Z,31.50
2023-03-17T05:40:45.575Z,31.70
2023-03-17T05:43:13.976Z,30.70
2023-03-17T05:45:43.334Z,31.90
2023-03-17T05:48:12.312Z,31.90
2023-03-17T05:50:41.526Z,31.70
2023-03-17T05:53:10.526Z,31.70
2023-03-17T05:55:38.577Z,32.00
2023-03-17T05:58:06.607Z,32.00
2023-03-17T06:00:35.080Z,31.80
2023-03-17T06:03:04.623Z,32.70
2023-03-17T06:05:33.118Z,31.70
2023-03-17T06:08:01.148Z,32.00
2023-03-17T06:10:29.921Z,31.70
2023-03-17T06:12:58.839Z,32.00
2023-03-17T06:15:27.603Z,30.90
2023-03-17T06:17:55.804Z,31.80
2023-03-17T06:20:25.139Z,32.20
2023-03-17T06:23:04.055Z,32.20
2023-03-17T06:25:33.635Z,30.70
2023-03-17T06:28:03.602Z,32.40
2023-03-17T06:30:32.658Z,31.90
2023-03-17T06:33:01.121Z,32.10
2023-03-17T06:35:31.654Z,32.30
2023-03-17T06:38:00.738Z,32.00
2023-03-17T06:40:30.447Z,32.00
2023-03-17T06:42:59.017Z,32.20
2023-03-17T06:45:27.326Z,31.70
2023-03-17T06:47:56.927Z,30.50
2023-03-17T06:50:25.269Z,30.40
2023-03-17T06:52:54.607Z,30.00
2023-03-17T06:55:22.648Z,29.20
2023-03-17T06:57:51.365Z,28.50
2023-03-17T07:00:20.922Z,28.10
2023-03-17T07:02:49.357Z,27.30
2023-03-17T07:05:17.820Z,26.40
2023-03-17T07:07:46.235Z,26.50
2023-03-17T07:10:17.134Z,26.10
2023-03-17T07:12:45.606Z,25.70
2023-03-17T07:15:13.854Z,25.30
2023-03-17T07:17:42.425Z,25.30
2023-03-17T07:20:12.066Z,25.00
2023-03-17T07:22:40.111Z,24.80
2023-03-17T07:25:09.563Z,24.40
2023-03-17T07:27:39.069Z,24.10
2023-03-17T07:30:09.146Z,23.40
2023-03-17T07:32:37.666Z,23.10
2023-03-17T07:35:07.173Z,23.80
2023-03-17T07:37:35.163Z,23.00
2023-03-17T07:40:03.304Z,22.50
2023-03-17T07:42:31.364Z,22.30
2023-03-17T07:45:00.689Z,20.80
2023-03-17T07:47:28.768Z,21.20
2023-03-17T07:49:57.249Z,21.60
2023-03-17T07:52:25.224Z,20.50
2023-03-17T07:54:53.913Z,20.40
2023-03-17T07:57:22.009Z,20.00
2023-03-17T07:59:50.419Z,19.80
2023-03-17T08:02:21.108Z,19.80
2023-03-17T08:04:50.084Z,19.30
2023-03-17T08:07:18.358Z,19.40
2023-03-17T08:09:46.458Z,19.20
2023-03-17T08:12:15.902Z,18.80
2023-03-17T08:14:43.877Z,18.70
2023-03-17T08:17:13.382Z,18.50
2023-03-17T08:19:43.003Z,18.80
2023-03-17T08:22:12.321Z,18.70
2023-03-17T08:24:42.897Z,18.90
2023-03-17T08:27:11.209Z,18.40
2023-03-17T08:29:39.567Z,18.90
2023-03-17T08:32:09.007Z,18.10
2023-03-17T08:34:37.175Z,19.00
2023-03-17T08:37:08.852Z,18.80
2023-03-17T08:39:38.879Z,18.10
2023-03-17T08:42:07.158Z,17.70
2023-03-17T08:44:35.228Z,17.60
2023-03-17T08:47:04.599Z,17.60
2023-03-17T08:49:34.836Z,17.30
2023-03-17T08:52:03.391Z,17.10
2023-03-17T08:54:32.829Z,17.30
2023-03-17T08:57:01.724Z,17.30
2023-03-17T08:59:29.786Z,17.20
2023-03-17T09:01:57.723Z,18.40
2023-03-17T09:04:26.479Z,18.70
2023-03-17T09:07:03.180Z,18.50
2023-03-17T09:09:34.390Z,17.90
2023-03-17T09:12:05.215Z,18.20
2023-03-17T09:14:42.870Z,18.40
2023-03-17T09:17:12.023Z,18.50
2023-03-17T09:19:40.262Z,18.40
2023-03-17T09:22:08.807Z,18.00
2023-03-17T09:24:38.122Z,18.60
2023-03-17T09:27:07.033Z,18.60
2023-03-17T09:29:35.488Z,18.90
2023-03-17T09:32:03.524Z,18.80
2023-03-17T09:34:31.579Z,19.10
2023-03-17T09:36:59.877Z,19.30
2023-03-17T09:39:28.137Z,19.20
2023-03-17T09:42:09.244Z,19.20
2023-03-17T09:44:58.533Z,19.20
2023-03-17T09:47:54.584Z,19.30
2023-03-17T09:50:27.736Z,19.60
2023-03-17T09:52:58.336Z,19.60
2023-03-17T09:55:30.393Z,19.50
2023-03-17T09:58:03.282Z,19.20
2023-03-17T10:00:32.524Z,18.90
2023-03-17T10:03:01.427Z,19.10
2023-03-17T10:05:32.352Z,19.10
2023-03-17T10:08:22.810Z,19.10
2023-03-17T10:11:03.121Z,19.30
2023-03-17T10:13:49.390Z,19.30
2023-03-17T10:16:21.757Z,19.50
2023-03-17T10:18:57.586Z,19.50
2023-03-17T10:21:30.249Z,19.70
2023-03-17T10:23:59.243Z,19.60
2023-03-17T10:26:33.731Z,19.60
2023-03-17T10:29:04.743Z,19.70
2023-03-17T10:31:35.517Z,20.00
2023-03-17T10:34:14.831Z,19.60
2023-03-17T10:36:46.878Z,19.90
2023-03-17T10:39:19.586Z,20.20
2023-03-17T10:41:57.910Z,20.20
2023-03-17T10:44:45.177Z,20.20
2023-03-17T10:47:29.956Z,20.20
2023-03-17T10:50:00.729Z,20.50
2023-03-17T10:52:32.564Z,20.60
2023-03-17T10:55:03.591Z,20.80
2023-03-17T10:57:31.606Z,20.90
2023-03-17T11:00:05.078Z,20.90
2023-03-17T11:02:45.110Z,21.20
2023-03-17T11:05:22.244Z,21.20
2023-03-17T11:07:50.459Z,21.00
2023-03-17T11:10:23.603Z,20.90
2023-03-17T11:12:59.168Z,20.90
2023-03-17T11:15:34.019Z,21.50
2023-03-17T11:18:03.970Z,21.10
2023-03-17T11:20:43.739Z,21.10
2023-03-17T11:23:46.951Z,21.00
2023-03-17T11:26:49.661Z,21.00
2023-03-17T11:29:37.899Z,21.30
2023-03-17T11:32:25.295Z,21.20
2023-03-17T11:35:14.958Z,21.40
2023-03-17T11:38:01.181Z,21.50
2023-03-17T11:40:35.150Z,21.10
2023-03-17T11:43:28.303Z,21.50
2023-03-17T11:46:06.310Z,21.30
2023-03-17T11:48:48.144Z,21.10
2023-03-17T11:51:27.364Z,20.90
2023-03-17T11:54:09.480Z,20.40
2023-03-17T11:56:43.394Z,20.30
2023-03-17T11:59:34.719Z,20.50
2023-03-17T12:02:17.270Z,20.30
2023-03-17T12:04:54.257Z,17.80
2023-03-17T12:07:26.914Z,15.70
2023-03-17T12:10:05.171Z,15.30
2023-03-17T12:12:39.834Z,17.00
2023-03-17T12:15:16.082Z,18.90
2023-03-17T12:17:52.491Z,18.40
2023-03-17T12:20:32.016Z,16.90
2023-03-17T12:23:06.891Z,15.70
2023-03-17T12:25:42.422Z,16.20
2023-03-17T12:28:16.929Z,15.90
2023-03-17T12:30:50.969Z,15.60
2023-03-17T12:33:25.885Z,16.60
2023-03-17T12:35:55.588Z,16.10
2023-03-17T12:38:32.923Z,15.70
2023-03-17T12:41:34.838Z,15.50
2023-03-17T12:44:08.887Z,15.90
2023-03-17T12:47:13.368Z,15.90
2023-03-17T12:50:35.297Z,15.10
2023-03-17T12:53:27.556Z,15.30
2023-03-17T12:56:00.342Z,16.20
2023-03-17T12:58:33.855Z,15.80
2023-03-17T13:01:12.960Z,15.90
2023-03-17T13:03:58.942Z,15.80
2023-03-17T13:06:26.963Z,14.70
2023-03-17T13:08:56.328Z,15.30
2023-03-17T13:11:30.023Z,15.20
2023-03-17T13:14:16.115Z,15.40
2023-03-17T13:16:47.779Z,15.00
2023-03-17T13:19:22.816Z,15.00
2023-03-17T13:21:54.069Z,15.00
2023-03-17T13:24:47.998Z,14.40
2023-03-17T13:27:49.757Z,15.10
2023-03-17T13:31:06.139Z,15.50
2023-03-17T13:33:34.353Z,16.30
2023-03-17T13:36:27.263Z,15.90
2023-03-17T13:39:48.635Z,16.60
2023-03-17T13:42:35.975Z,17.70
2023-03-17T13:45:37.170Z,18.50
2023-03-17T13:48:33.866Z,18.20
2023-03-17T13:51:14.517Z,19.00
2023-03-17T13:53:48.897Z,19.60
2023-03-17T13:56:19.902Z,19.60
2023-03-17T13:59:13.386Z,19.50
2023-03-17T14:01:48.498Z,20.40
2023-03-17T14:04:23.944Z,21.40
2023-03-17T14:06:55.901Z,21.80
2023-03-17T14:09:35.581Z,22.40
2023-03-17T14:12:12.000Z,22.30
2023-03-17T14:14:50.637Z,22.10
2023-03-17T14:17:25.514Z,22.40
2023-03-17T14:20:19.640Z,22.60
2023-03-17T14:22:49.898Z,22.40
2023-03-17T14:25:20.546Z,23.00
2023-03-17T14:27:52.401Z,22.80
2023-03-17T14:30:25.086Z,22.50
2023-03-17T14:33:01.326Z,22.50
2023-03-17T14:35:32.452Z,22.70
2023-03-17T14:38:01.739Z,22.80
2023-03-17T14:40:36.706Z,22.80
2023-03-17T14:43:05.202Z,23.00
2023-03-17T14:45:49.638Z,22.70
2023-03-17T14:48:23.661Z,22.70
2023-03-17T14:50:55.023Z,22.70
2023-03-17T14:53:25.037Z,22.90
2023-03-17T14:55:54.151Z,22.90
2023-03-17T14:58:26.551Z,22.70
2023-03-17T15:01:04.045Z,22.60
2023-03-17T15:03:34.237Z,22.80
2023-03-17T15:06:21.004Z,22.40
2023-03-17T15:08:49.154Z,23.70
2023-03-17T15:11:29.466Z,23.30
2023-03-17T15:14:07.815Z,23.30
2023-03-17T15:16:38.361Z,23.40
2023-03-17T15:19:09.850Z,23.50
2023-03-17T15:21:41.890Z,23.60
2023-03-17T15:24:34.269Z,23.70
2023-03-17T15:27:04.989Z,23.60
2023-03-17T15:29:33.369Z,23.80
2023-03-17T15:32:11.522Z,23.60
2023-03-17T15:34:39.696Z,24.20
2023-03-17T15:37:16.895Z,24.40
2023-03-17T15:39:44.946Z,23.70
2023-03-17T15:42:12.998Z,24.50
2023-03-17T15:44:41.124Z,24.50
2023-03-17T15:47:15.594Z,24.60
2023-03-17T15:49:44.057Z,24.50
2023-03-17T15:52:17.890Z,24.70
2023-03-17T15:54:47.297Z,24.80
2023-03-17T15:57:15.635Z,25.00
2023-03-17T15:59:44.100Z,25.00
2023-03-17T16:02:29.200Z,25.00
2023-03-17T16:04:58.099Z,25.20
2023-03-17T16:07:26.682Z,25.20
2023-03-17T16:09:55.146Z,25.30
2023-03-17T16:12:23.285Z,24.80
2023-03-17T16:14:51.413Z,25.40
2023-03-17T16:17:28.760Z,25.30
2023-03-17T16:19:57.109Z,25.50
2023-03-17T16:22:39.588Z,25.60
2023-03-17T16:25:21.882Z,25.40
2023-03-17T16:27:50.559Z,25.90
2023-03-17T16:30:21.079Z,25.70
2023-03-17T16:32:51.570Z,25.50
2023-03-17T16:35:22.674Z,26.00
2023-03-17T16:37:54.072Z,25.60
2023-03-17T16:40:26.006Z,25.60
2023-03-17T16:42:54.613Z,25.90
2023-03-17T16:45:29.831Z,25.70
2023-03-17T16:48:00.121Z,25.50
2023-03-17T16:50:31.764Z,26.10
2023-03-17T16:53:00.869Z,25.90
2023-03-17T16:55:30.411Z,26.20
2023-03-17T16:58:04.501Z,26.00
2023-03-17T17:00:33.520Z,26.10
2023-03-17T17:03:03.097Z,26.50
2023-03-17T17:05:32.187Z,26.60
2023-03-17T17:08:00.873Z,26.60
2023-03-17T17:10:32.604Z,26.30
2023-03-17T17:13:00.766Z,26.70
2023-03-17T17:15:30.373Z,26.60
2023-03-17T17:18:03.774Z,26.40
2023-03-17T17:20:35.184Z,26.40
2023-03-17T17:23:04.388Z,27.20
2023-03-17T17:25:32.915Z,26.90
2023-03-17T17:28:01.108Z,27.40
2023-03-17T17:30:31.432Z,27.20
2023-03-17T17:33:01.090Z,26.90
2023-03-17T17:35:33.406Z,27.10
2023-03-17T17:38:01.725Z,27.20
2023-03-17T17:40:31.232Z,27.40
2023-03-17T17:42:59.351Z,27.50
2023-03-17T17:45:27.433Z,27.50
2023-03-17T17:47:55.437Z,27.30
2023-03-17T17:50:27.081Z,27.30
2023-03-17T17:53:02.579Z,27.70
2023-03-17T17:55:30.709Z,27.80
2023-03-17T17:57:58.679Z,27.30
2023-03-17T18:00:26.785Z,26.60
2023-03-17T18:02:54.785Z,26.50
2023-03-17T18:05:23.502Z,26.70
2023-03-17T18:07:51.827Z,27.30
2023-03-17T18:10:25.612Z,27.30
2023-03-17T18:12:54.677Z,27.30
2023-03-17T18:15:23.280Z,27.60
2023-03-17T18:17:51.588Z,27.70
2023-03-17T18:20:22.552Z,27.70
2023-03-17T18:22:51.659Z,27.90
2023-03-17T18:25:21.583Z,27.70
2023-03-17T18:27:49.966Z,27.90
2023-03-17T18:30:23.330Z,27.90
2023-03-17T18:32:54.406Z,28.20
2023-03-17T18:35:24.701Z,28.60
2023-03-17T18:37:53.021Z,28.30
2023-03-17T18:40:22.400Z,28.20
2023-03-17T18:42:50.376Z,27.10
2023-03-17T18:45:18.486Z,22.70
2023-03-17T18:47:46.459Z,24.80
2023-03-17T18:50:16.427Z,24.40
2023-03-17T18:52:45.734Z,25.40
2023-03-17T18:55:16.151Z,25.30
2023-03-17T18:57:46.264Z,26.60
2023-03-17T19:00:17.321Z,26.40
2023-03-17T19:02:46.166Z,26.60
2023-03-17T19:05:15.296Z,26.60
2023-03-17T19:07:43.677Z,26.80
2023-03-17T19:10:13.894Z,27.00
2023-03-17T19:12:42.666Z,27.10
2023-03-17T19:15:13.476Z,27.10
2023-03-17T19:17:42.261Z,26.70
2023-03-17T19:20:13.069Z,27.30
2023-03-17T19:22:41.572Z,27.40
2023-03-17T19:25:11.492Z,26.90
2023-03-17T19:27:39.876Z,27.30
2023-03-17T19:30:10.182Z,27.80
2023-03-17T19:32:39.577Z,27.80
2023-03-17T19:35:09.213Z,27.40
2023-03-17T19:37:37.992Z,28.00
2023-03-17T19:40:08.461Z,27.90
2023-03-17T19:42:36.617Z,28.10
2023-03-17T19:45:05.248Z,27.70
2023-03-17T19:47:33.417Z,28.40
2023-03-17T19:50:02.784Z,28.50
2023-03-17T19:52:30.828Z,28.50
2023-03-17T19:54:58.889Z,28.40
2023-03-17T19:57:26.974Z,28.50
2023-03-17T19:59:54.984Z,28.70
2023-03-17T20:02:22.961Z,29.10
2023-03-17T20:04:51.283Z,29.70
2023-03-17T20:07:20.678Z,30.00
2023-03-17T20:09:49.363Z,30.30
2023-03-17T20:12:17.463Z,30.20
2023-03-17T20:14:45.930Z,30.80
2023-03-17T20:17:15.231Z,31.20
2023-03-17T20:19:43.250Z,31.50
2023-03-17T20:22:11.562Z,31.00
2023-03-17T20:24:40.890Z,31.50
2023-03-17T20:27:10.457Z,31.20
2023-03-17T20:29:38.693Z,32.00
2023-03-17T20:32:06.826Z,31.80
2023-03-17T20:34:35.648Z,32.00
2023-03-17T20:37:04.137Z,31.90
2023-03-17T20:39:32.458Z,32.30
2023-03-17T20:42:04.173Z,32.50
2023-03-17T20:44:32.118Z,32.30
2023-03-17T20:47:00.158Z,32.40
2023-03-17T20:49:28.442Z,32.50
2023-03-17T20:51:56.621Z,32.80
2023-03-17T20:54:24.607Z,33.00
2023-03-17T20:56:53.670Z,32.80
2023-03-17T20:59:24.192Z,32.20
2023-03-17T21:01:52.300Z,33.00
2023-03-17T21:04:21.180Z,33.30
2023-03-17T21:06:49.715Z,33.30
2023-03-17T21:09:17.774Z,33.30
2023-03-17T21:11:46.428Z,33.30
2023-03-17T21:14:14.749Z,33.20
2023-03-17T21:16:45.118Z,33.50
2023-03-17T21:19:15.271Z,33.50
2023-03-17T21:21:43.294Z,33.20
2023-03-17T21:24:25.708Z,33.50
2023-03-17T21:26:53.879Z,33.50
2023-03-17T21:29:22.659Z,33.20
2023-03-17T21:31:52.526Z,33.40
2023-03-17T21:34:20.591Z,33.20
2023-03-17T21:36:48.579Z,33.30
2023-03-17T21:39:16.593Z,33.00
2023-03-17T21:41:46.131Z,32.80
2023-03-17T21:44:15.799Z,32.80
2023-03-17T21:46:44.108Z,32.90
2023-03-17T21:49:16.034Z,32.70
2023-03-17T21:51:45.050Z,33.10
2023-03-17T21:54:14.164Z,33.20
2023-03-17T21:56:42.859Z,33.20
2023-03-17T21:59:12.299Z,33.20
2023-03-17T22:01:41.671Z,33.70
2023-03-17T22:04:10.201Z,32.00
2023-03-17T22:06:40.079Z,32.60
2023-03-17T22:09:08.554Z,33.30
2023-03-17T22:11:36.526Z,32.70
2023-03-17T22:14:04.643Z,32.70
2023-03-17T22:16:33.018Z,32.30
2023-03-17T22:19:01.455Z,32.30
2023-03-17T22:21:29.753Z,32.70
2023-03-17T22:23:59.085Z,32.70
2023-03-17T22:26:27.844Z,32.70
2023-03-17T22:28:56.014Z,32.60
2023-03-17T22:31:27.106Z,32.70
2023-03-17T22:33:58.003Z,32.70
2023-03-17T22:36:27.290Z,32.60
2023-03-17T22:38:57.030Z,32.30
2023-03-17T22:41:29.957Z,32.60
2023-03-17T22:43:58.998Z,32.40
2023-03-17T22:46:27.334Z,32.50
2023-03-17T22:48:55.645Z,32.30
2023-03-17T22:51:26.489Z,32.50
2023-03-17T22:53:55.645Z,32.00
2023-03-17T22:56:26.082Z,32.50
2023-03-17T22:58:54.776Z,32.60
2023-03-17T23:01:25.694Z,32.40
2023-03-17T23:03:55.226Z,32.40
2023-03-17T23:06:23.860Z,32.40
2023-03-17T23:08:52.269Z,32.20
2023-03-17T23:11:23.301Z,32.40
2023-03-17T23:13:53.600Z,32.20
2023-03-17T23:16:22.516Z,32.00
2023-03-17T23:18:50.753Z,32.30
2023-03-17T23:21:26.258Z,32.20
2023-03-17T23:23:54.712Z,32.40
2023-03-17T23:26:22.827Z,32.40
2023-03-17T23:28:52.526Z,32.90
2023-03-17T23:31:22.341Z,33.50
2023-03-17T23:33:52.538Z,34.20
2023-03-17T23:36:21.340Z,32.10
2023-03-17T23:38:50.214Z,33.50
2023-03-17T23:41:18.375Z,33.70
2023-03-17T23:43:46.707Z,32.50
2023-03-17T23:46:16.349Z,34.20
2023-03-17T23:48:44.710Z,33.70
2023-03-17T23:51:14.270Z,34.00
2023-03-17T23:53:42.829Z,33.50
2023-03-17T23:56:13.013Z,33.60
2023-03-17T23:58:43.142Z,34.50
